createdAt,value
2023-05-05T00:01:08.766Z,101492.78
2023-05-05T00:03:35.889Z,101500.72
2023-05-05T00:06:02.916Z,101493.59
2023-05-05T00:08:29.781Z,101488.63
2023-05-05T00:10:57.387Z,101485.63
2023-05-05T00:13:24.303Z,101491.63
2023-05-05T00:15:53.456Z,101499.47
2023-05-05T00:18:21.219Z,101500.63
2023-05-05T00:20:48.152Z,101492.25
2023-05-05T00:23:15.693Z,101499.63
2023-05-05T00:25:42.191Z,101490.41
2023-05-05T00:28:08.758Z,101489.13
2023-05-05T00:30:37.186Z,101482.09
2023-05-05T00:33:04.160Z,101481.44
2023-05-05T00:35:30.686Z,101479.81
2023-05-05T00:37:57.159Z,101479.69
2023-05-05T00:40:25.029Z,101477.38
2023-05-05T00:42:53.484Z,101490.75
2023-05-05T00:45:20.327Z,101500.53
2023-05-05T00:47:54.673Z,101503.75
2023-05-05T00:50:26.155Z,101504.56
2023-05-05T00:52:55.291Z,101512.38
2023-05-05T00:55:22.178Z,101519.59
2023-05-05T00:57:49.218Z,101500.63
2023-05-05T01:00:16.757Z,101500.72
2023-05-05T01:02:44.708Z,101490.38
2023-05-05T01:05:14.259Z,101490.38
2023-05-05T01:07:43.576Z,101490.25
2023-05-05T01:10:32.041Z,101486.34
2023-05-05T01:13:25.688Z,101494.97
2023-05-05T01:16:00.918Z,101494.25
2023-05-05T01:18:36.740Z,101493.53
2023-05-05T01:21:03.214Z,101492.38
2023-05-05T01:24:08.154Z,101503.91
2023-05-05T01:26:53.789Z,101501.13
2023-05-05T01:29:31.831Z,101506.44
2023-05-05T01:32:15.795Z,101507.38
2023-05-05T01:34:53.426Z,101520.06
2023-05-05T01:37:24.486Z,101516.94
2023-05-05T01:39:56.281Z,101518.22
2023-05-05T01:42:25.197Z,101511.56
2023-05-05T01:44:54.178Z,101509.59
2023-05-05T01:47:23.057Z,101513.19
2023-05-05T01:49:50.578Z,101517.22
2023-05-05T01:52:18.221Z,101523.56
2023-05-05T01:54:46.868Z,101524.78
2023-05-05T01:57:15.556Z,101539.41
2023-05-05T01:59:42.351Z,101541.72
2023-05-05T02:02:13.527Z,101543.31
2023-05-05T02:04:43.639Z,101542.19
2023-05-05T02:07:12.672Z,101535.50
2023-05-05T02:09:40.717Z,101515.69
2023-05-05T02:12:08.623Z,101493.59
2023-05-05T02:14:36.892Z,101497.16
2023-05-05T02:17:04.124Z,101486.34
2023-05-05T02:19:37.918Z,101479.56
2023-05-05T02:22:04.436Z,101487.72
2023-05-05T02:24:30.937Z,101505.78
2023-05-05T02:27:00.257Z,101506.78
2023-05-05T02:29:34.684Z,101520.47
2023-05-05T02:32:14.228Z,101498.59
2023-05-05T02:34:43.448Z,101511.44
2023-05-05T02:37:19.866Z,101516.16
2023-05-05T02:40:02.601Z,101513.63
2023-05-05T02:42:36.759Z,101508.66
2023-05-05T02:45:13.507Z,101511.16
2023-05-05T02:47:42.977Z,101508.25
2023-05-05T02:50:10.590Z,101510.41
2023-05-05T02:52:41.836Z,101512.69
2023-05-05T02:55:09.797Z,101504.84
2023-05-05T02:57:55.804Z,101499.53
2023-05-05T03:00:50.381Z,101505.03
2023-05-05T03:03:28.639Z,101503.75
2023-05-05T03:06:16.588Z,101509.34
2023-05-05T03:08:50.957Z,101511.78
2023-05-05T03:11:29.108Z,101519.47
2023-05-05T03:14:05.436Z,101511.25
2023-05-05T03:16:32.443Z,101517.75
2023-05-05T03:19:00.615Z,101527.03
2023-05-05T03:21:27.792Z,101521.22
2023-05-05T03:23:54.467Z,101526.91
2023-05-05T03:26:22.136Z,101529.88
2023-05-05T03:28:48.726Z,101533.28
2023-05-05T03:31:21.052Z,101536.38
2023-05-05T03:33:51.946Z,101540.78
2023-05-05T03:36:22.099Z,101540.31
2023-05-05T03:38:48.831Z,101531.88
2023-05-05T03:41:15.905Z,101523.94
2023-05-05T03:43:42.435Z,101512.28
2023-05-05T03:46:10.160Z,101523.66
2023-05-05T03:48:36.835Z,101536.16
2023-05-05T03:51:03.443Z,101538.44
2023-05-05T03:53:32.344Z,101545.56
2023-05-05T03:56:00.708Z,101556.91
2023-05-05T03:58:27.331Z,101569.41
2023-05-05T04:00:53.925Z,101563.41
2023-05-05T04:03:20.997Z,101559.84
2023-05-05T04:05:47.933Z,101568.13
2023-05-05T04:08:14.561Z,101578.66
2023-05-05T04:10:41.056Z,101584.50
2023-05-05T04:13:08.613Z,101588.38
2023-05-05T04:15:35.957Z,101588.88
2023-05-05T04:18:04.527Z,101591.47
2023-05-05T04:20:31.238Z,101599.91
2023-05-05T04:22:57.801Z,101602.16
2023-05-05T04:25:24.496Z,101600.72
2023-05-05T04:27:51.087Z,101607.03
2023-05-05T04:30:17.583Z,101608.97
2023-05-05T04:32:44.749Z,101615.31
2023-05-05T04:35:11.417Z,101621.94
2023-05-05T04:37:38.189Z,101622.28
2023-05-05T04:40:05.306Z,101631.66
2023-05-05T04:42:33.519Z,101620.66
2023-05-05T04:45:00.993Z,101633.28
2023-05-05T04:47:29.238Z,101629.72
2023-05-05T04:49:56.031Z,101618.38
2023-05-05T04:52:22.700Z,101623.88
2023-05-05T04:54:51.475Z,101634.25
2023-05-05T04:57:17.902Z,101633.13
2023-05-05T04:59:44.329Z,101640.25
2023-05-05T05:02:10.849Z,101642.19
2023-05-05T05:04:37.324Z,101633.63
2023-05-05T05:07:03.747Z,101641.22
2023-05-05T05:09:30.361Z,101646.25
2023-05-05T05:12:03.031Z,101647.88
2023-05-05T05:14:30.116Z,101643.97
2023-05-05T05:16:56.623Z,101646.56
2023-05-05T05:19:24.085Z,101642.03
2023-05-05T05:21:51.028Z,101641.03
2023-05-05T05:24:17.625Z,101640.09
2023-05-05T05:26:44.158Z,101644.53
2023-05-05T05:29:10.696Z,101646.78
2023-05-05T05:31:37.252Z,101648.91
2023-05-05T05:34:04.154Z,101652.63
2023-05-05T05:36:31.703Z,101648.41
2023-05-05T05:38:58.206Z,101653.22
2023-05-05T05:41:25.676Z,101653.91
2023-05-05T05:43:52.207Z,101659.59
2023-05-05T05:46:19.251Z,101661.50
2023-05-05T05:48:46.458Z,101666.16
2023-05-05T05:51:13.514Z,101668.53
2023-05-05T05:53:40.292Z,101675.34
2023-05-05T05:56:08.970Z,101671.59
2023-05-05T05:58:36.013Z,101670.25
2023-05-05T06:01:03.903Z,101666.69
2023-05-05T06:03:31.310Z,101664.03
2023-05-05T06:05:59.174Z,101661.06
2023-05-05T06:08:26.841Z,101664.25
2023-05-05T06:10:54.786Z,101656.28
2023-05-05T06:13:21.483Z,101658.72
2023-05-05T06:15:50.846Z,101658.38
2023-05-05T06:18:17.969Z,101652.59
2023-05-05T06:20:44.810Z,101655.44
2023-05-05T06:23:13.626Z,101657.22
2023-05-05T06:25:44.846Z,101661.56
2023-05-05T06:28:11.490Z,101661.38
2023-05-05T06:30:37.938Z,101665.94
2023-05-05T06:33:04.407Z,101668.31
2023-05-05T06:35:30.868Z,101667.44
2023-05-05T06:37:57.437Z,101667.25
2023-05-05T06:40:23.866Z,101668.53
2023-05-05T06:42:51.699Z,101669.09
2023-05-05T06:45:23.067Z,101669.88
2023-05-05T06:47:49.621Z,101681.66
2023-05-05T06:50:16.192Z,101676.81
2023-05-05T06:52:42.702Z,101675.66
2023-05-05T06:55:09.922Z,101681.41
2023-05-05T06:57:36.341Z,101681.41
2023-05-05T07:00:05.691Z,101673.75
2023-05-05T07:02:33.554Z,101683.75
2023-05-05T07:05:11.106Z,101687.41
2023-05-05T07:07:39.730Z,101691.31
2023-05-05T07:10:07.577Z,101690.69
2023-05-05T07:12:34.210Z,101693.53
2023-05-05T07:15:04.853Z,101698.06
2023-05-05T07:17:36.089Z,101699.69
2023-05-05T07:20:02.983Z,101699.06
2023-05-05T07:22:29.453Z,101691.78
2023-05-05T07:24:56.014Z,101697.53
2023-05-05T07:27:22.796Z,101700.34
2023-05-05T07:29:50.655Z,101693.88
2023-05-05T07:32:17.111Z,101705.44
2023-05-05T07:34:43.621Z,101705.50
2023-05-05T07:37:10.588Z,101703.78
2023-05-05T07:39:37.066Z,101705.97
2023-05-05T07:42:03.711Z,101700.00
2023-05-05T07:44:30.580Z,101696.03
2023-05-05T07:46:57.076Z,101704.88
2023-05-05T07:49:23.535Z,101701.72
2023-05-05T07:51:51.259Z,101705.25
2023-05-05T07:54:18.027Z,101708.81
2023-05-05T07:56:44.668Z,101708.03
2023-05-05T07:59:11.846Z,101699.63
2023-05-05T08:01:39.963Z,101689.72
2023-05-05T08:04:06.540Z,101700.97
2023-05-05T08:06:33.180Z,101695.75
2023-05-05T08:09:00.865Z,101694.53
2023-05-05T08:11:29.471Z,101706.13
2023-05-05T08:13:56.390Z,101703.63
2023-05-05T08:16:22.900Z,101704.75
2023-05-05T08:18:51.960Z,101699.91
2023-05-05T08:21:18.562Z,101703.06
2023-05-05T08:23:45.112Z,101700.13
2023-05-05T08:26:11.582Z,101704.88
2023-05-05T08:28:38.089Z,101708.72
2023-05-05T08:31:05.623Z,101707.94
2023-05-05T08:33:32.693Z,101697.59
2023-05-05T08:36:00.994Z,101704.59
2023-05-05T08:38:29.607Z,101710.59
2023-05-05T08:40:56.299Z,101720.13
2023-05-05T08:43:23.965Z,101720.88
2023-05-05T08:45:51.650Z,101717.75
2023-05-05T08:48:22.545Z,101728.03
2023-05-05T08:50:56.635Z,101724.00
2023-05-05T08:54:00.629Z,101728.03
2023-05-05T08:56:38.605Z,101732.06
2023-05-05T08:59:05.918Z,101733.66
2023-05-05T09:01:33.638Z,101722.28
2023-05-05T09:04:00.621Z,101729.50
2023-05-05T09:06:27.398Z,101734.25
2023-05-05T09:08:54.413Z,101731.81
2023-05-05T09:11:22.570Z,101731.38
2023-05-05T09:13:49.715Z,101716.94
2023-05-05T09:16:18.593Z,101719.69
2023-05-05T09:18:45.586Z,101733.19
2023-05-05T09:21:26.490Z,101728.31
2023-05-05T09:24:10.895Z,101724.78
2023-05-05T09:26:41.451Z,101726.44
2023-05-05T09:29:07.988Z,101718.91
2023-05-05T09:31:36.167Z,101725.34
2023-05-05T09:34:14.126Z,101729.28
2023-05-05T09:36:44.653Z,101731.63
2023-05-05T09:39:13.486Z,101732.81
2023-05-05T09:41:42.067Z,101736.22
2023-05-05T09:44:08.873Z,101729.56
2023-05-05T09:46:35.994Z,101723.09
2023-05-05T09:49:17.991Z,101727.03
2023-05-05T09:51:47.518Z,101731.72
2023-05-05T09:54:24.841Z,101719.63
2023-05-05T09:56:52.281Z,101718.09
2023-05-05T09:59:19.280Z,101720.09
2023-05-05T10:01:46.279Z,101726.81
2023-05-05T10:04:30.125Z,101724.22
2023-05-05T10:06:57.894Z,101718.91
2023-05-05T10:09:26.102Z,101720.28
2023-05-05T10:11:53.417Z,101716.25
2023-05-05T10:14:20.407Z,101743.84
2023-05-05T10:16:50.606Z,101755.66
2023-05-05T10:19:20.410Z,101776.44
2023-05-05T10:21:49.842Z,101793.50
2023-05-05T10:24:30.488Z,101748.03
2023-05-05T10:27:00.677Z,101766.94
2023-05-05T10:29:46.006Z,101772.72
2023-05-05T10:32:50.917Z,101768.72
2023-05-05T10:35:16.474Z,101769.84
2023-05-05T10:37:44.617Z,101758.03
2023-05-05T10:40:14.010Z,101748.94
2023-05-05T10:42:41.380Z,101754.41
2023-05-05T10:45:08.551Z,101753.00
2023-05-05T10:47:36.638Z,101763.75
2023-05-05T10:50:13.923Z,101764.31
2023-05-05T10:52:46.913Z,101763.06
2023-05-05T10:55:17.653Z,101764.09
2023-05-05T10:57:45.837Z,101758.75
2023-05-05T11:00:40.178Z,101772.22
2023-05-05T11:03:19.266Z,101798.88
2023-05-05T11:06:03.868Z,101797.38
2023-05-05T11:08:32.313Z,101795.22
2023-05-05T11:10:59.553Z,101796.56
2023-05-05T11:13:26.471Z,101797.25
2023-05-05T11:15:54.327Z,101798.19
2023-05-05T11:18:40.531Z,101801.25
2023-05-05T11:21:15.293Z,101795.50
2023-05-05T11:23:49.661Z,101794.22
2023-05-05T11:26:18.570Z,101779.91
2023-05-05T11:29:02.526Z,101782.09
2023-05-05T11:31:30.869Z,101785.31
2023-05-05T11:34:24.311Z,101806.78
2023-05-05T11:36:52.209Z,101823.13
2023-05-05T11:39:27.515Z,101817.47
2023-05-05T11:42:06.594Z,101807.53
2023-05-05T11:44:36.123Z,101808.72
2023-05-05T11:47:05.307Z,101804.75
2023-05-05T11:49:32.729Z,101814.28
2023-05-05T11:52:04.304Z,101814.41
2023-05-05T11:54:31.701Z,101804.25
2023-05-05T11:57:02.898Z,101804.09
2023-05-05T11:59:29.299Z,101810.56
2023-05-05T12:01:55.916Z,101811.91
2023-05-05T12:04:22.743Z,101804.03
2023-05-05T12:06:49.551Z,101798.97
2023-05-05T12:09:17.791Z,101795.78
2023-05-05T12:11:51.339Z,101801.91
2023-05-05T12:14:18.248Z,101796.03
2023-05-05T12:17:07.069Z,101792.81
2023-05-05T12:19:33.727Z,101796.63
2023-05-05T12:22:04.471Z,101802.03
2023-05-05T12:24:31.160Z,101794.91
2023-05-05T12:27:10.886Z,101798.47
2023-05-05T12:29:37.930Z,101796.28
2023-05-05T12:32:04.690Z,101794.19
2023-05-05T12:34:31.884Z,101798.25
2023-05-05T12:36:58.675Z,101791.88
2023-05-05T12:39:35.459Z,101795.72
2023-05-05T12:42:06.272Z,101788.44
2023-05-05T12:44:39.595Z,101795.56
2023-05-05T12:47:06.971Z,101789.69
2023-05-05T12:49:49.912Z,101781.50
2023-05-05T12:52:16.749Z,101783.59
2023-05-05T12:54:57.822Z,101787.97
2023-05-05T12:57:25.391Z,101783.13
2023-05-05T12:59:53.343Z,101778.53
2023-05-05T13:02:20.815Z,101790.63
2023-05-05T13:04:54.666Z,101778.84
2023-05-05T13:07:21.914Z,101780.69
2023-05-05T13:09:49.542Z,101776.34
2023-05-05T13:12:17.857Z,101785.19
2023-05-05T13:14:44.631Z,101783.38
2023-05-05T13:17:11.941Z,101793.28
2023-05-05T13:19:46.061Z,101784.50
2023-05-05T13:22:13.473Z,101783.78
2023-05-05T13:24:51.020Z,101776.50
2023-05-05T13:27:19.627Z,101792.88
2023-05-05T13:29:46.236Z,101793.78
2023-05-05T13:32:12.770Z,101792.50
2023-05-05T13:34:41.458Z,101797.41
2023-05-05T13:37:08.612Z,101806.00
2023-05-05T13:39:35.258Z,101803.31
2023-05-05T13:42:01.708Z,101810.19
2023-05-05T13:44:28.229Z,101808.75
2023-05-05T13:46:54.821Z,101808.31
2023-05-05T13:49:21.317Z,101816.94
2023-05-05T13:51:47.913Z,101811.84
2023-05-05T13:54:14.463Z,101813.19
2023-05-05T13:56:41.043Z,101812.84
2023-05-05T13:59:07.584Z,101810.44
2023-05-05T14:01:34.197Z,101806.91
2023-05-05T14:04:03.598Z,101802.03
2023-05-05T14:06:31.273Z,101800.38
2023-05-05T14:08:57.806Z,101802.47
2023-05-05T14:11:24.316Z,101796.78
2023-05-05T14:13:51.928Z,101795.84
2023-05-05T14:16:18.665Z,101784.94
2023-05-05T14:18:45.623Z,101784.69
2023-05-05T14:21:12.420Z,101776.84
2023-05-05T14:23:38.917Z,101773.41
2023-05-05T14:26:05.441Z,101763.16
2023-05-05T14:28:34.267Z,101767.56
2023-05-05T14:31:00.748Z,101759.25
2023-05-05T14:33:27.153Z,101756.34
2023-05-05T14:35:53.589Z,101753.88
2023-05-05T14:38:20.095Z,101737.69
2023-05-05T14:40:46.565Z,101734.63
2023-05-05T14:43:13.494Z,101729.63
2023-05-05T14:45:39.973Z,101711.84
2023-05-05T14:48:06.446Z,101706.69
2023-05-05T14:50:32.923Z,101709.94
2023-05-05T14:53:00.868Z,101715.28
2023-05-05T14:55:27.349Z,101737.31
2023-05-05T14:57:53.874Z,101754.44
2023-05-05T15:00:20.524Z,101765.34
2023-05-05T15:02:48.159Z,101759.34
2023-05-05T15:05:15.021Z,101749.19
2023-05-05T15:07:41.571Z,101752.56
2023-05-05T15:10:08.343Z,101757.97
2023-05-05T15:12:35.067Z,101758.22
2023-05-05T15:15:01.844Z,101752.22
2023-05-05T15:17:28.682Z,101755.66
2023-05-05T15:19:55.219Z,101751.34
2023-05-05T15:22:21.699Z,101738.00
2023-05-05T15:24:48.167Z,101749.53
2023-05-05T15:27:14.742Z,101735.66
2023-05-05T15:29:44.021Z,101743.44
2023-05-05T15:32:13.785Z,101739.53
2023-05-05T15:34:40.561Z,101731.56
2023-05-05T15:37:07.037Z,101727.31
2023-05-05T15:39:33.454Z,101725.06
2023-05-05T15:42:03.683Z,101728.50
2023-05-05T15:44:30.778Z,101731.28
2023-05-05T15:46:57.575Z,101725.75
2023-05-05T15:49:24.072Z,101723.78
2023-05-05T15:51:51.824Z,101719.66
2023-05-05T15:54:18.250Z,101721.97
2023-05-05T15:56:44.717Z,101721.50
2023-05-05T15:59:13.228Z,101715.34
2023-05-05T16:01:39.792Z,101718.84
2023-05-05T16:04:06.565Z,101712.50
2023-05-05T16:06:33.072Z,101718.03
2023-05-05T16:09:00.271Z,101716.56
2023-05-05T16:11:26.946Z,101715.53
2023-05-05T16:13:53.718Z,101713.59
2023-05-05T16:16:20.733Z,101712.91
2023-05-05T16:18:47.461Z,101716.97
2023-05-05T16:21:13.928Z,101711.56
2023-05-05T16:23:40.536Z,101709.97
2023-05-05T16:26:07.014Z,101707.53
2023-05-05T16:28:34.283Z,101710.28
2023-05-05T16:31:01.773Z,101701.88
2023-05-05T16:33:28.760Z,101701.38
2023-05-05T16:35:55.456Z,101702.06
2023-05-05T16:38:23.096Z,101700.16
2023-05-05T16:40:49.661Z,101700.41
2023-05-05T16:43:16.194Z,101701.06
2023-05-05T16:45:43.472Z,101693.44
2023-05-05T16:48:10.055Z,101692.97
2023-05-05T16:50:36.567Z,101699.31
2023-05-05T16:53:03.074Z,101698.97
2023-05-05T16:55:29.693Z,101694.59
2023-05-05T16:57:56.185Z,101690.88
2023-05-05T17:00:22.699Z,101701.47
2023-05-05T17:02:49.582Z,101697.88
2023-05-05T17:05:17.584Z,101701.47
2023-05-05T17:07:44.192Z,101705.22
2023-05-05T17:10:10.804Z,101706.88
2023-05-05T17:12:37.378Z,101704.31
2023-05-05T17:15:04.207Z,101707.88
2023-05-05T17:17:30.828Z,101702.38
2023-05-05T17:19:57.437Z,101707.06
2023-05-05T17:22:23.982Z,101703.50
2023-05-05T17:24:50.913Z,101706.41
2023-05-05T17:27:17.364Z,101712.88
2023-05-05T17:29:43.804Z,101707.22
2023-05-05T17:32:10.474Z,101709.72
2023-05-05T17:34:37.131Z,101713.97
2023-05-05T17:37:03.608Z,101709.09
2023-05-05T17:39:30.701Z,101709.91
2023-05-05T17:41:57.141Z,101701.28
2023-05-05T17:44:23.612Z,101701.97
2023-05-05T17:46:50.186Z,101709.44
2023-05-05T17:49:16.749Z,101709.91
2023-05-05T17:51:43.194Z,101713.00
2023-05-05T17:54:09.669Z,101711.38
2023-05-05T17:56:36.811Z,101720.34
2023-05-05T17:59:03.564Z,101726.19
2023-05-05T18:01:30.083Z,101728.47
2023-05-05T18:03:56.998Z,101729.94
2023-05-05T18:06:23.463Z,101728.00
2023-05-05T18:08:49.949Z,101733.19
2023-05-05T18:11:16.508Z,101732.38
2023-05-05T18:13:43.270Z,101726.72
2023-05-05T18:16:09.821Z,101731.59
2023-05-05T18:18:36.406Z,101732.75
2023-05-05T18:21:02.938Z,101730.63
2023-05-05T18:23:29.404Z,101727.88
2023-05-05T18:25:55.784Z,101721.09
2023-05-05T18:28:22.466Z,101725.81
2023-05-05T18:30:48.932Z,101729.03
2023-05-05T18:33:15.859Z,101725.44
2023-05-05T18:35:42.310Z,101724.19
2023-05-05T18:38:08.804Z,101735.06
2023-05-05T18:40:35.256Z,101733.63
2023-05-05T18:43:01.767Z,101735.91
2023-05-05T18:45:28.269Z,101735.44
2023-05-05T18:47:54.851Z,101738.53
2023-05-05T18:50:21.428Z,101737.53
2023-05-05T18:52:47.906Z,101735.75
2023-05-05T18:55:14.440Z,101741.44
2023-05-05T18:57:41.183Z,101744.06
2023-05-05T19:00:08.096Z,101745.88
2023-05-05T19:02:34.596Z,101739.38
2023-05-05T19:05:01.388Z,101738.75
2023-05-05T19:07:35.318Z,101744.09
2023-05-05T19:10:04.365Z,101745.25
2023-05-05T19:12:30.866Z,101746.69
2023-05-05T19:14:57.582Z,101751.91
2023-05-05T19:17:24.281Z,101755.66
2023-05-05T19:19:51.469Z,101748.03
2023-05-05T19:22:18.108Z,101753.22
2023-05-05T19:24:44.592Z,101756.31
2023-05-05T19:27:16.631Z,101760.53
2023-05-05T19:29:43.740Z,101761.50
2023-05-05T19:32:10.258Z,101765.25
2023-05-05T19:34:36.913Z,101767.03
2023-05-05T19:37:03.584Z,101767.19
2023-05-05T19:39:30.169Z,101768.94
2023-05-05T19:41:56.603Z,101779.47
2023-05-05T19:44:23.774Z,101774.28
2023-05-05T19:46:50.683Z,101775.75
2023-05-05T19:49:17.427Z,101771.19
2023-05-05T19:51:46.155Z,101767.78
2023-05-05T19:54:12.697Z,101774.59
2023-05-05T19:56:39.515Z,101774.75
2023-05-05T19:59:06.430Z,101774.25
2023-05-05T20:01:33.891Z,101777.00
2023-05-05T20:04:00.800Z,101777.97
2023-05-05T20:06:27.479Z,101781.66
2023-05-05T20:08:55.400Z,101787.78
2023-05-05T20:11:22.191Z,101783.88
2023-05-05T20:13:49.995Z,101786.47
2023-05-05T20:16:16.648Z,101784.06
2023-05-05T20:18:43.568Z,101780.63
2023-05-05T20:21:10.105Z,101784.16
2023-05-05T20:23:36.960Z,101781.72
2023-05-05T20:26:04.488Z,101778.28
2023-05-05T20:28:31.766Z,101779.22
2023-05-05T20:31:00.754Z,101787.34
2023-05-05T20:33:28.340Z,101791.53
2023-05-05T20:35:54.837Z,101793.28
2023-05-05T20:38:21.297Z,101793.09
2023-05-05T20:40:47.784Z,101798.09
2023-05-05T20:43:14.474Z,101791.78
2023-05-05T20:45:41.088Z,101801.31
2023-05-05T20:48:09.853Z,101792.56
2023-05-05T20:50:42.770Z,101790.13
2023-05-05T20:53:11.305Z,101784.13
2023-05-05T20:55:37.756Z,101788.31
2023-05-05T20:58:05.364Z,101779.88
2023-05-05T21:00:32.055Z,101782.47
2023-05-05T21:02:59.024Z,101779.53
2023-05-05T21:05:25.877Z,101779.03
2023-05-05T21:07:53.591Z,101781.09
2023-05-05T21:10:21.325Z,101783.66
2023-05-05T21:12:47.908Z,101784.28
2023-05-05T21:15:16.496Z,101783.28
2023-05-05T21:17:43.094Z,101783.41
2023-05-05T21:20:10.428Z,101776.94
2023-05-05T21:22:37.122Z,101777.03
2023-05-05T21:25:17.434Z,101775.09
2023-05-05T21:27:44.240Z,101778.16
2023-05-05T21:30:11.626Z,101779.59
2023-05-05T21:32:39.830Z,101777.16
2023-05-05T21:35:07.836Z,101783.28
2023-05-05T21:37:37.839Z,101783.09
2023-05-05T21:40:05.867Z,101779.03
2023-05-05T21:42:32.313Z,101782.41
2023-05-05T21:44:58.786Z,101775.84
2023-05-05T21:47:26.794Z,101774.22
2023-05-05T21:49:53.331Z,101783.09
2023-05-05T21:52:19.745Z,101778.25
2023-05-05T21:54:46.129Z,101780.00
2023-05-05T21:57:12.572Z,101774.00
2023-05-05T21:59:39.034Z,101780.09
2023-05-05T22:02:05.656Z,101780.72
2023-05-05T22:04:32.261Z,101776.34
2023-05-05T22:06:58.694Z,101768.72
2023-05-05T22:09:25.291Z,101770.97
2023-05-05T22:11:51.945Z,101766.69
2023-05-05T22:14:18.606Z,101775.56
2023-05-05T22:16:45.311Z,101773.94
2023-05-05T22:19:11.877Z,101766.81
2023-05-05T22:21:38.356Z,101772.63
2023-05-05T22:24:07.005Z,101774.06
2023-05-05T22:26:33.656Z,101770.50
2023-05-05T22:29:00.311Z,101774.56
2023-05-05T22:31:26.868Z,101776.66
2023-05-05T22:33:53.445Z,101768.13
2023-05-05T22:36:20.033Z,101766.34
2023-05-05T22:38:46.544Z,101769.38
2023-05-05T22:41:13.894Z,101775.50
2023-05-05T22:43:40.330Z,101776.91
2023-05-05T22:46:06.809Z,101769.50
2023-05-05T22:48:33.337Z,101764.81
2023-05-05T22:50:59.930Z,101767.56
2023-05-05T22:53:26.455Z,101765.63
2023-05-05T22:55:52.983Z,101768.88
2023-05-05T22:58:19.914Z,101776.00
2023-05-05T23:00:46.426Z,101774.22
2023-05-05T23:03:13.651Z,101761.81
2023-05-05T23:05:40.139Z,101764.06
2023-05-05T23:08:06.611Z,101763.25
2023-05-05T23:10:33.103Z,101760.84
2023-05-05T23:12:59.700Z,101759.22
2023-05-05T23:15:26.304Z,101764.19
2023-05-05T23:17:52.865Z,101766.63
2023-05-05T23:20:19.569Z,101754.84
2023-05-05T23:22:45.975Z,101763.88
2023-05-05T23:25:13.778Z,101765.50
2023-05-05T23:27:40.995Z,101756.16
2023-05-05T23:30:09.110Z,101752.09
2023-05-05T23:32:35.683Z,101754.34
2023-05-05T23:35:02.292Z,101754.94
2023-05-05T23:37:28.782Z,101752.63
2023-05-05T23:39:56.376Z,101751.91
2023-05-05T23:42:23.981Z,101753.53
2023-05-05T23:44:51.793Z,101751.59
2023-05-05T23:47:18.269Z,101757.91
2023-05-05T23:49:44.798Z,101751.59
2023-05-05T23:52:11.465Z,101755.66
2023-05-05T23:54:38.042Z,101750.06
2023-05-05T23:57:04.664Z,101740.72
2023-05-05T23:59:31.138Z,101752.00
